Time;durP1;ratioP1;P1;durP2;ratioP2;P2;SDS_P1;SDS_P2;PMS_P1;PMS_P2;Temp;Humidity;BMP_temperature;BMP_pressure;BME280_temperature;BME280_humidity;BME280_pressure;Samples;Min_cycle;Max_cycle;Signal;HPM_P1;HPM_P2
2020/12/26 00:01:28;;;;;;;19.87;10.63;;;4.90;99.90;;;;;;4139691;28;20885;-52
2020/12/26 00:03:29;;;;;;;15.37;8.73;;;4.90;99.90;;;;;;4140732;28;20314;-49
2020/12/26 00:05:31;;;;;;;15.83;8.77;;;4.90;99.90;;;;;;4139784;28;20267;-55
2020/12/26 00:07:32;;;;;;;14.93;8.60;;;4.90;99.90;;;;;;4140834;28;20275;-51
2020/12/26 00:09:33;;;;;;;17.10;9.17;;;4.90;99.90;;;;;;4139455;28;20483;-54
2020/12/26 00:11:34;;;;;;;20.63;11.07;;;4.90;99.90;;;;;;4140805;28;20338;-53
2020/12/26 00:13:36;;;;;;;15.70;9.57;;;4.90;99.90;;;;;;4139700;28;20361;-50
2020/12/26 00:15:37;;;;;;;12.27;7.67;;;4.90;99.90;;;;;;4141963;28;20303;-56
2020/12/26 00:17:39;;;;;;;15.73;9.07;;;4.90;99.90;;;;;;4142836;28;20255;-51
2020/12/26 00:19:40;;;;;;;16.73;8.57;;;5.00;99.90;;;;;;4143033;28;20740;-51
2020/12/26 00:21:42;;;;;;;17.03;9.07;;;4.90;99.90;;;;;;4143218;28;20321;-47
2020/12/26 00:23:44;;;;;;;14.63;8.00;;;4.90;99.90;;;;;;4142995;28;20276;-50
2020/12/26 00:25:45;;;;;;;15.93;8.57;;;4.80;99.90;;;;;;4143532;28;20255;-49
2020/12/26 00:27:46;;;;;;;15.27;7.67;;;4.70;99.90;;;;;;4142512;28;20260;-52
2020/12/26 00:29:47;;;;;;;14.77;7.73;;;4.70;99.90;;;;;;4144434;28;20279;-48
2020/12/26 00:31:48;;;;;;;14.83;8.20;;;4.70;99.90;;;;;;4143087;28;20263;-51
2020/12/26 00:33:49;;;;;;;13.70;7.53;;;4.70;99.90;;;;;;4143243;28;20795;-51
2020/12/26 00:35:51;;;;;;;13.77;8.30;;;4.70;99.90;;;;;;4142513;28;20281;-48
2020/12/26 00:37:52;;;;;;;14.33;7.90;;;4.60;99.90;;;;;;4143537;28;20482;-53
2020/12/26 00:39:53;;;;;;;12.87;7.37;;;4.60;99.90;;;;;;4142880;28;20402;-47
2020/12/26 00:41:54;;;;;;;12.97;6.77;;;4.50;99.90;;;;;;4143453;28;20291;-47
2020/12/26 00:43:55;;;;;;;12.13;6.97;;;4.60;99.90;;;;;;4142527;28;21404;-52
2020/12/26 00:45:56;;;;;;;11.77;6.93;;;4.60;99.90;;;;;;4143489;28;20590;-51
2020/12/26 00:47:58;;;;;;;15.00;7.17;;;4.50;99.90;;;;;;4142832;28;20329;-50
2020/12/26 00:49:59;;;;;;;10.10;5.83;;;4.50;99.90;;;;;;4142619;28;20337;-49
2020/12/26 00:52:00;;;;;;;10.40;6.67;;;4.50;99.90;;;;;;4143118;28;20272;-47
2020/12/26 00:54:01;;;;;;;10.23;6.53;;;4.50;99.90;;;;;;4142444;28;20307;-49
2020/12/26 00:56:02;;;;;;;15.83;8.27;;;4.50;99.90;;;;;;4142711;28;20263;-51
2020/12/26 00:58:03;;;;;;;12.23;7.10;;;4.50;99.90;;;;;;4142884;28;20268;-47
2020/12/26 01:00:05;;;;;;;11.00;6.17;;;4.40;99.90;;;;;;4143825;28;20272;-54
2020/12/26 01:02:06;;;;;;;10.20;6.73;;;4.40;99.90;;;;;;4141487;28;20268;-49
2020/12/26 01:04:07;;;;;;;13.23;6.60;;;4.40;99.90;;;;;;4143565;28;20280;-48
2020/12/26 01:06:15;;;;;;;12.13;7.57;;;4.40;99.90;;;;;;4141511;28;20298;-48
2020/12/26 01:08:16;;;;;;;15.10;8.03;;;4.30;99.90;;;;;;4143430;28;21079;-48
2020/12/26 01:10:18;;;;;;;13.30;8.10;;;4.40;99.90;;;;;;4141965;28;20321;-50
2020/12/26 01:12:19;;;;;;;13.73;7.83;;;4.40;99.90;;;;;;4143379;28;20280;-52
2020/12/26 01:14:20;;;;;;;12.87;7.13;;;4.30;99.90;;;;;;4142256;28;20353;-50
2020/12/26 01:16:21;;;;;;;15.03;8.33;;;4.30;99.90;;;;;;4142902;28;20271;-48
2020/12/26 01:18:22;;;;;;;17.07;7.67;;;4.30;99.90;;;;;;4142599;28;20601;-48
2020/12/26 01:20:23;;;;;;;19.07;9.27;;;4.40;99.90;;;;;;4142280;28;20338;-57
2020/12/26 01:22:25;;;;;;;14.80;7.73;;;4.30;99.90;;;;;;4142631;28;20326;-47
2020/12/26 01:24:26;;;;;;;13.47;7.97;;;4.30;99.90;;;;;;4142286;28;20271;-48
2020/12/26 01:26:27;;;;;;;17.17;8.17;;;4.30;99.90;;;;;;4142011;28;20683;-53
2020/12/26 01:28:28;;;;;;;13.53;7.80;;;4.30;99.90;;;;;;4142196;28;20321;-49
2020/12/26 01:30:29;;;;;;;15.47;8.57;;;4.30;99.90;;;;;;4143379;28;20271;-47
2020/12/26 01:32:31;;;;;;;18.03;9.07;;;4.30;99.90;;;;;;4141743;28;20275;-44
2020/12/26 01:34:32;;;;;;;18.00;8.80;;;4.30;99.90;;;;;;4141347;28;20276;-52
2020/12/26 01:36:33;;;;;;;19.67;8.90;;;4.30;99.90;;;;;;4141138;28;20306;-46
2020/12/26 01:38:36;;;;;;;21.33;10.87;;;4.30;99.90;;;;;;4143052;28;20423;-57
2020/12/26 01:40:37;;;;;;;23.57;11.17;;;4.20;99.90;;;;;;4141533;28;20279;-52
2020/12/26 01:42:39;;;;;;;18.23;10.00;;;4.30;99.90;;;;;;4142534;28;20341;-51
2020/12/26 01:44:40;;;;;;;16.23;8.73;;;4.20;99.90;;;;;;4140991;28;20268;-50
2020/12/26 01:46:42;;;;;;;18.83;9.53;;;4.20;99.90;;;;;;4142377;28;20283;-49
2020/12/26 01:48:43;;;;;;;16.90;9.10;;;4.20;99.90;;;;;;4141480;28;20341;-51
2020/12/26 01:50:45;;;;;;;17.40;9.37;;;4.20;99.90;;;;;;4141638;28;20330;-50
2020/12/26 01:52:48;;;;;;;18.33;9.90;;;4.20;99.90;;;;;;4141631;28;20373;-51
2020/12/26 01:54:51;;;;;;;16.37;9.47;;;4.20;99.90;;;;;;4141716;28;20345;-50
2020/12/26 01:56:53;;;;;;;18.97;8.80;;;4.20;99.90;;;;;;4142001;28;20318;-51
2020/12/26 01:58:54;;;;;;;18.17;9.83;;;4.20;99.90;;;;;;4141716;28;20271;-51
2020/12/26 02:00:55;;;;;;;16.70;9.37;;;4.20;99.90;;;;;;4142751;28;20279;-49
2020/12/26 02:02:56;;;;;;;16.60;9.00;;;4.20;99.90;;;;;;4141100;28;20377;-54
2020/12/26 02:04:57;;;;;;;16.27;9.67;;;4.20;99.90;;;;;;4142067;28;20279;-51
2020/12/26 02:07:02;;;;;;;15.97;9.50;;;4.20;99.90;;;;;;4141340;28;20329;-55
2020/12/26 02:09:05;;;;;;;15.10;8.97;;;4.20;99.90;;;;;;4142261;28;20271;-51
2020/12/26 02:11:06;;;;;;;15.47;8.40;;;4.20;99.90;;;;;;4140645;28;20342;-49
2020/12/26 02:13:08;;;;;;;12.87;7.50;;;4.20;99.90;;;;;;4142083;28;20303;-50
2020/12/26 02:15:13;;;;;;;14.63;8.27;;;4.20;99.90;;;;;;4140692;28;20279;-49
2020/12/26 02:17:14;;;;;;;12.27;7.80;;;4.10;99.90;;;;;;4142617;28;20755;-52
2020/12/26 02:19:17;;;;;;;11.90;7.00;;;4.10;99.90;;;;;;4141002;28;20279;-52
2020/12/26 02:21:22;;;;;;;14.90;7.63;;;4.10;99.90;;;;;;4142008;28;20830;-49
2020/12/26 02:23:25;;;;;;;12.00;7.07;;;4.10;99.90;;;;;;4140499;28;20605;-54
2020/12/26 02:25:26;;;;;;;12.87;7.00;;;4.00;99.90;;;;;;4142082;28;20317;-48
2020/12/26 02:27:27;;;;;;;12.57;7.87;;;4.10;99.90;;;;;;4141420;28;21192;-51
2020/12/26 02:29:28;;;;;;;13.20;7.70;;;4.00;99.90;;;;;;4141167;28;20329;-51
2020/12/26 02:31:29;;;;;;;13.87;7.43;;;4.00;99.90;;;;;;4141819;28;20271;-48
2020/12/26 02:33:32;;;;;;;12.57;7.87;;;4.00;99.90;;;;;;4140486;28;20345;-49
2020/12/26 02:35:33;;;;;;;12.17;6.87;;;4.00;99.90;;;;;;4142520;28;20275;-48
2020/12/26 02:37:34;;;;;;;13.37;7.10;;;3.90;99.90;;;;;;4140325;28;20259;-50
2020/12/26 02:39:35;;;;;;;12.33;6.43;;;3.90;99.90;;;;;;4141116;28;20306;-47
2020/12/26 02:41:36;;;;;;;10.57;6.63;;;3.90;99.90;;;;;;4140057;28;20345;-52
2020/12/26 02:43:37;;;;;;;10.40;5.80;;;3.90;99.90;;;;;;4141477;28;20337;-52
2020/12/26 02:45:38;;;;;;;8.23;5.30;;;3.90;99.90;;;;;;4140445;28;20280;-48
2020/12/26 02:47:40;;;;;;;10.50;5.90;;;3.90;99.90;;;;;;4141655;28;20326;-51
2020/12/26 02:49:41;;;;;;;9.27;5.80;;;3.80;99.90;;;;;;4140501;28;20272;-48
2020/12/26 02:51:42;;;;;;;12.20;6.33;;;3.80;99.90;;;;;;4141332;28;20318;-46
2020/12/26 02:53:43;;;;;;;10.77;6.33;;;3.80;99.90;;;;;;4140263;28;20311;-49
2020/12/26 02:55:44;;;;;;;11.57;6.13;;;3.80;99.90;;;;;;4141180;28;20326;-48
2020/12/26 02:57:45;;;;;;;9.87;6.00;;;3.80;99.90;;;;;;4140631;28;20272;-48
2020/12/26 02:59:46;;;;;;;12.00;7.07;;;3.80;99.90;;;;;;4141309;28;20380;-50
2020/12/26 03:01:47;;;;;;;11.43;6.13;;;3.80;99.90;;;;;;4141503;28;20294;-53
2020/12/26 03:03:48;;;;;;;8.43;5.63;;;3.80;99.90;;;;;;4140229;28;20329;-55
2020/12/26 03:05:49;;;;;;;9.93;6.10;;;3.70;99.90;;;;;;4141122;28;20264;-47
2020/12/26 03:07:50;;;;;;;11.63;6.37;;;3.70;99.90;;;;;;4140657;28;20349;-53
2020/12/26 03:09:52;;;;;;;9.00;5.70;;;3.70;99.90;;;;;;4141901;28;20260;-49
2020/12/26 03:11:53;;;;;;;10.90;5.90;;;3.60;99.90;;;;;;4140726;28;20280;-54
2020/12/26 03:13:54;;;;;;;9.83;5.67;;;3.60;99.90;;;;;;4141702;28;20283;-48
2020/12/26 03:15:57;;;;;;;8.30;5.33;;;3.60;99.90;;;;;;4140281;28;20263;-50
2020/12/26 03:17:58;;;;;;;10.37;5.83;;;3.60;99.90;;;;;;4141055;28;20283;-51
2020/12/26 03:20:00;;;;;;;9.37;5.67;;;3.50;99.90;;;;;;4139979;28;21230;-51
2020/12/26 03:22:01;;;;;;;9.40;5.30;;;3.60;99.90;;;;;;4123493;28;20260;-48
2020/12/26 03:24:02;;;;;;;8.43;5.13;;;3.50;99.90;;;;;;4139949;28;20848;-52
2020/12/26 03:26:03;;;;;;;9.77;5.33;;;3.40;99.90;;;;;;4140886;28;20264;-50
2020/12/26 03:28:04;;;;;;;10.57;5.60;;;3.40;99.90;;;;;;4140365;28;20326;-49
2020/12/26 03:30:06;;;;;;;10.07;5.57;;;3.40;99.90;;;;;;4140249;28;20694;-55
2020/12/26 03:32:07;;;;;;;10.77;5.97;;;3.40;99.90;;;;;;4141587;28;20314;-52
2020/12/26 03:34:08;;;;;;;10.60;5.87;;;3.40;99.90;;;;;;4140095;28;20295;-49
2020/12/26 03:36:09;;;;;;;11.00;6.27;;;3.40;99.90;;;;;;4140358;28;20264;-49
2020/12/26 03:38:10;;;;;;;8.03;5.43;;;3.30;99.90;;;;;;4139826;28;20263;-50
2020/12/26 03:40:11;;;;;;;10.37;6.37;;;3.30;99.90;;;;;;4141160;28;20794;-51
2020/12/26 03:42:13;;;;;;;10.07;5.30;;;3.30;99.90;;;;;;4139985;28;20313;-53
2020/12/26 03:44:14;;;;;;;9.73;5.57;;;3.30;99.90;;;;;;4140811;28;20318;-51
2020/12/26 03:46:15;;;;;;;10.00;5.63;;;3.30;99.90;;;;;;4139916;28;20271;-50
2020/12/26 03:48:16;;;;;;;11.00;5.90;;;3.30;99.90;;;;;;4140467;28;20275;-47
2020/12/26 03:50:17;;;;;;;8.90;5.53;;;3.30;99.90;;;;;;4139923;28;20616;-52
2020/12/26 03:52:18;;;;;;;9.07;5.60;;;3.30;99.90;;;;;;4141246;28;20321;-49
2020/12/26 03:54:20;;;;;;;11.40;6.17;;;3.30;99.90;;;;;;4140218;28;20295;-48
2020/12/26 03:56:21;;;;;;;9.47;5.30;;;3.30;99.90;;;;;;4141146;28;20353;-51
2020/12/26 03:58:22;;;;;;;8.70;5.23;;;3.30;99.90;;;;;;4140440;28;20259;-49
2020/12/26 04:00:23;;;;;;;9.60;5.70;;;3.30;99.90;;;;;;4140099;28;20276;-53
2020/12/26 04:02:24;;;;;;;9.87;5.37;;;3.30;99.90;;;;;;4140498;28;20310;-48
2020/12/26 04:04:25;;;;;;;10.07;5.50;;;3.30;99.90;;;;;;4139819;28;20276;-51
2020/12/26 04:06:26;;;;;;;7.97;5.00;;;3.30;99.90;;;;;;4140626;28;20271;-49
2020/12/26 04:08:27;;;;;;;8.50;4.87;;;3.30;99.90;;;;;;4139597;28;20294;-46
2020/12/26 04:10:28;;;;;;;9.10;5.37;;;3.30;99.90;;;;;;4140852;28;20752;-50
2020/12/26 04:12:29;;;;;;;10.23;6.33;;;3.30;99.90;;;;;;4139273;28;21285;-48
2020/12/26 04:14:30;;;;;;;10.30;5.47;;;3.20;99.90;;;;;;4140832;28;20295;-54
2020/12/26 04:16:32;;;;;;;9.27;5.63;;;3.20;99.90;;;;;;4139677;28;21316;-53
2020/12/26 04:18:33;;;;;;;10.43;6.17;;;3.20;99.90;;;;;;4140991;28;20329;-51
2020/12/26 04:20:34;;;;;;;12.20;5.83;;;3.20;99.90;;;;;;4139240;28;20345;-51
2020/12/26 04:22:35;;;;;;;9.40;5.60;;;3.20;99.90;;;;;;4140930;28;21134;-51
2020/12/26 04:24:36;;;;;;;11.33;6.20;;;3.20;99.90;;;;;;4139095;28;20314;-49
2020/12/26 04:26:37;;;;;;;10.67;6.20;;;3.20;99.90;;;;;;4141118;28;20318;-48
2020/12/26 04:28:38;;;;;;;9.70;5.80;;;3.20;99.90;;;;;;4139383;28;20751;-48
2020/12/26 04:30:39;;;;;;;10.50;6.30;;;3.20;99.90;;;;;;4140010;28;20264;-49
2020/12/26 04:32:41;;;;;;;10.87;6.27;;;3.20;99.90;;;;;;4140286;28;20326;-49
2020/12/26 04:34:48;;;;;;;8.63;5.40;;;3.10;99.90;;;;;;4139771;28;20373;-47
2020/12/26 04:36:49;;;;;;;9.57;5.83;;;3.10;99.90;;;;;;4140791;28;20264;-47
2020/12/26 04:38:50;;;;;;;12.37;5.80;;;3.00;99.90;;;;;;4139623;28;20617;-51
2020/12/26 04:40:51;;;;;;;10.07;5.93;;;2.90;99.90;;;;;;4140333;28;20325;-50
2020/12/26 04:42:53;;;;;;;10.80;6.07;;;2.90;99.90;;;;;;4139135;28;20830;-53
2020/12/26 04:44:55;;;;;;;9.30;5.40;;;3.00;99.90;;;;;;4140545;28;20268;-50
2020/12/26 04:47:05;;;;;;;10.20;6.20;;;3.00;99.90;;;;;;4139193;28;20275;-51
2020/12/26 04:49:08;;;;;;;9.13;5.57;;;3.00;99.90;;;;;;4140103;28;20264;-47
2020/12/26 04:51:17;;;;;;;9.13;5.13;;;3.00;99.90;;;;;;4139825;28;20267;-54
2020/12/26 04:53:19;;;;;;;8.97;5.50;;;2.90;99.90;;;;;;4140375;28;20818;-51
2020/12/26 04:55:28;;;;;;;11.80;5.73;;;3.00;99.90;;;;;;4139794;28;20298;-52
2020/12/26 04:57:35;;;;;;;11.10;5.90;;;2.90;99.90;;;;;;4140709;28;21001;-53
2020/12/26 04:59:36;;;;;;;9.27;5.67;;;2.80;99.90;;;;;;4139466;28;20276;-50
2020/12/26 05:01:40;;;;;;;7.97;4.70;;;2.80;99.90;;;;;;4141653;28;20276;-47
2020/12/26 05:03:43;;;;;;;10.40;6.07;;;2.80;99.90;;;;;;4142306;28;20801;-51
2020/12/26 05:05:45;;;;;;;8.47;5.70;;;2.70;99.90;;;;;;4142776;28;20329;-50
2020/12/26 05:07:48;;;;;;;9.30;5.50;;;2.60;99.90;;;;;;4142549;28;20747;-54
2020/12/26 05:09:49;;;;;;;9.40;5.90;;;2.60;99.90;;;;;;4142550;28;20272;-49
2020/12/26 05:12:01;;;;;;;12.43;6.30;;;2.60;99.90;;;;;;4142095;28;20283;-48
2020/12/26 05:14:08;;;;;;;10.53;5.67;;;2.60;99.90;;;;;;4142510;28;20341;-48
2020/12/26 05:16:10;;;;;;;7.87;4.80;;;2.60;99.90;;;;;;4142682;28;20317;-46
2020/12/26 05:18:11;;;;;;;7.43;4.60;;;2.60;99.90;;;;;;4142336;28;20350;-53
2020/12/26 05:20:12;;;;;;;8.73;5.10;;;2.60;99.90;;;;;;4142620;28;20283;-47
2020/12/26 05:22:17;;;;;;;8.77;5.17;;;2.60;99.90;;;;;;4142434;28;20283;-49
2020/12/26 05:24:18;;;;;;;9.97;5.83;;;2.60;99.90;;;;;;4142933;28;20320;-48
2020/12/26 05:26:20;;;;;;;10.17;4.57;;;2.60;99.90;;;;;;4141959;28;20314;-48
2020/12/26 05:28:25;;;;;;;8.33;4.93;;;2.60;99.90;;;;;;4142681;28;20291;-53
2020/12/26 05:30:27;;;;;;;6.97;4.67;;;2.60;99.90;;;;;;4141833;28;20639;-49
2020/12/26 05:32:28;;;;;;;10.23;4.90;;;2.60;99.90;;;;;;4143971;28;20264;-49
2020/12/26 05:34:38;;;;;;;9.40;5.23;;;2.60;99.90;;;;;;4141630;28;20299;-47
2020/12/26 05:36:40;;;;;;;7.35;4.90;;;2.60;99.90;;;;;;4143585;28;20295;-54
2020/12/26 05:38:41;;;;;;;7.30;4.53;;;2.60;99.90;;;;;;4141739;28;20053;-46
2020/12/26 05:40:50;;;;;;;8.90;4.90;;;2.60;99.90;;;;;;4142602;28;20732;-48
2020/12/26 05:42:53;;;;;;;9.10;5.28;;;2.50;99.90;;;;;;4141823;28;20264;-45
2020/12/26 05:45:05;;;;;;;8.63;4.43;;;2.50;99.90;;;;;;4142344;28;20433;-51
2020/12/26 05:47:06;;;;;;;9.83;5.20;;;2.50;99.90;;;;;;4141920;28;20251;-47
2020/12/26 05:49:27;;;;;;;10.50;4.80;;;2.50;99.90;;;;;;4143170;28;20251;-47
2020/12/26 05:51:28;;;;;;;8.73;4.80;;;2.40;99.90;;;;;;4141455;28;20264;-47
2020/12/26 05:53:31;;;;;;;10.47;5.37;;;2.40;99.90;;;;;;4142185;28;20268;-51
2020/12/26 05:55:43;;;;;;;7.40;4.73;;;2.40;99.90;;;;;;4141133;28;20330;-50
2020/12/26 05:57:51;;;;;;;9.17;4.83;;;2.40;99.90;;;;;;4142731;28;20263;-49
2020/12/26 05:59:56;;;;;;;7.30;4.73;;;2.40;99.90;;;;;;4140731;28;20287;-52
2020/12/26 06:02:00;;;;;;;7.83;4.37;;;2.40;99.90;;;;;;4142801;28;20267;-49
2020/12/26 06:04:07;;;;;;;7.10;4.37;;;2.40;99.90;;;;;;4141820;28;20872;-54
2020/12/26 06:06:09;;;;;;;10.77;5.33;;;2.40;99.90;;;;;;4142322;28;20256;-53
2020/12/26 06:08:12;;;;;;;7.87;4.97;;;2.40;99.90;;;;;;4141868;28;20271;-48
2020/12/26 06:10:13;;;;;;;8.73;5.63;;;2.40;99.90;;;;;;4141498;28;20283;-46
2020/12/26 06:12:16;;;;;;;10.17;5.13;;;2.40;99.90;;;;;;4141200;28;20287;-48
2020/12/26 06:14:18;;;;;;;10.60;5.73;;;2.40;99.90;;;;;;4142045;28;20291;-47
2020/12/26 06:16:25;;;;;;;8.47;5.10;;;2.30;99.90;;;;;;4142362;28;20290;-47
2020/12/26 06:18:30;;;;;;;9.30;5.43;;;2.30;99.90;;;;;;4141588;28;20271;-48
2020/12/26 06:20:32;;;;;;;10.20;5.10;;;2.30;99.90;;;;;;4142016;28;20287;-47
2020/12/26 06:22:51;;;;;;;9.03;5.57;;;2.40;99.90;;;;;;4140917;28;20283;-51
2020/12/26 06:24:53;;;;;;;11.73;5.10;;;2.30;99.90;;;;;;4141844;28;20659;-46
2020/12/26 06:27:01;;;;;;;7.80;5.20;;;2.30;99.90;;;;;;4140622;28;20279;-51
2020/12/26 06:29:03;;;;;;;10.20;5.17;;;2.30;99.90;;;;;;4142141;28;20326;-48
2020/12/26 06:31:06;;;;;;;9.13;5.07;;;2.30;99.90;;;;;;4140449;28;20271;-51
2020/12/26 06:33:07;;;;;;;9.67;6.13;;;2.20;99.90;;;;;;4142654;28;20655;-50
2020/12/26 06:35:10;;;;;;;11.13;5.43;;;2.30;99.90;;;;;;4141059;28;20299;-46
2020/12/26 06:37:11;;;;;;;10.00;5.70;;;2.20;99.90;;;;;;4142347;28;20671;-51
2020/12/26 06:39:29;;;;;;;9.97;5.47;;;2.20;99.90;;;;;;4140851;28;20256;-47
2020/12/26 06:41:30;;;;;;;10.77;5.53;;;2.20;99.90;;;;;;4141871;28;20338;-49
2020/12/26 06:43:59;;;;;;;10.60;6.03;;;2.20;99.90;;;;;;4140216;28;20365;-49
2020/12/26 06:46:01;;;;;;;20.63;11.33;;;2.30;99.90;;;;;;4142282;28;21010;-47
2020/12/26 06:48:03;;;;;;;21.30;12.43;;;2.20;99.90;;;;;;4141253;28;20283;-50
2020/12/26 06:50:26;;;;;;;17.80;10.37;;;2.20;99.90;;;;;;4141551;28;20762;-55
2020/12/26 06:52:39;;;;;;;19.00;11.83;;;2.20;99.90;;;;;;4140963;28;20259;-53
2020/12/26 06:54:44;;;;;;;16.73;11.00;;;2.30;99.90;;;;;;4140996;28;20304;-52
2020/12/26 06:56:46;;;;;;;13.93;9.80;;;2.30;99.90;;;;;;4140754;28;20810;-54
2020/12/26 06:58:47;;;;;;;22.50;12.90;;;2.30;99.90;;;;;;4141952;28;20752;-54
2020/12/26 07:00:48;;;;;;;16.00;9.37;;;2.40;99.90;;;;;;4144736;28;20283;-48
2020/12/26 07:03:15;;;;;;;15.73;9.37;;;2.40;99.90;;;;;;4157702;28;20329;-46
2020/12/26 07:05:36;;;;;;;13.13;9.00;;;2.40;99.90;;;;;;4157269;28;20266;-46
2020/12/26 07:07:38;;;;;;;18.57;9.37;;;2.40;99.90;;;;;;4156461;28;20308;-45
2020/12/26 07:09:47;;;;;;;15.17;8.40;;;2.40;99.90;;;;;;4147447;28;20284;-46
2020/12/26 07:11:50;;;;;;;12.37;8.00;;;2.40;99.90;;;;;;4141466;28;20333;-54
2020/12/26 07:13:52;;;;;;;11.50;7.67;;;2.30;99.90;;;;;;4140101;28;20775;-46
2020/12/26 07:15:53;;;;;;;16.03;8.57;;;2.30;99.90;;;;;;4140516;28;20275;-46
2020/12/26 07:17:54;;;;;;;10.63;6.03;;;2.30;99.90;;;;;;4139905;28;20317;-56
2020/12/26 07:19:59;;;;;;;10.87;5.73;;;2.30;99.90;;;;;;4141421;28;20318;-47
2020/12/26 07:22:02;;;;;;;9.20;6.43;;;2.30;99.90;;;;;;4139962;28;20272;-53
2020/12/26 07:24:07;;;;;;;10.73;6.93;;;2.20;99.90;;;;;;4140833;28;20268;-46
2020/12/26 07:26:11;;;;;;;10.80;6.10;;;2.30;99.90;;;;;;4139794;28;20263;-48
2020/12/26 07:28:14;;;;;;;12.00;7.43;;;2.20;99.90;;;;;;4140730;28;20321;-47
2020/12/26 07:30:17;;;;;;;11.17;7.07;;;2.30;99.90;;;;;;4140250;28;20251;-46
2020/12/26 07:32:40;;;;;;;11.47;6.73;;;2.30;99.90;;;;;;4140815;28;20310;-52
2020/12/26 07:34:41;;;;;;;10.90;6.57;;;2.20;99.90;;;;;;4151948;28;20302;-49
2020/12/26 07:36:42;;;;;;;15.20;9.87;;;2.20;99.90;;;;;;4149343;28;20671;-50
2020/12/26 07:38:43;;;;;;;14.17;8.27;;;2.20;99.90;;;;;;4141930;28;20310;-53
2020/12/26 07:40:46;;;;;;;10.97;6.97;;;2.20;99.90;;;;;;4155959;28;20266;-50
2020/12/26 07:42:47;;;;;;;10.90;7.47;;;2.20;99.90;;;;;;4156432;28;20267;-48
2020/12/26 07:44:49;;;;;;;11.57;6.40;;;2.20;99.90;;;;;;4156189;28;20274;-49
2020/12/26 07:46:50;;;;;;;12.90;7.37;;;2.20;99.90;;;;;;4157123;28;20324;-48
2020/12/26 07:48:54;;;;;;;17.83;9.73;;;2.20;99.90;;;;;;4142456;28;20397;-47
2020/12/26 07:50:55;;;;;;;19.07;9.53;;;2.20;99.90;;;;;;4141366;28;20275;-50
2020/12/26 07:53:03;;;;;;;15.87;8.77;;;2.10;99.90;;;;;;4150330;28;20328;-48
2020/12/26 07:55:05;;;;;;;21.87;12.30;;;2.10;99.90;;;;;;4145773;28;20819;-48
2020/12/26 07:57:06;;;;;;;20.07;10.83;;;2.10;99.90;;;;;;4140152;28;20366;-48
2020/12/26 07:59:07;;;;;;;16.40;9.73;;;2.20;99.90;;;;;;4141081;28;20275;-44
2020/12/26 08:01:08;;;;;;;12.93;8.40;;;2.10;99.90;;;;;;4140946;28;20381;-48
2020/12/26 08:03:12;;;;;;;12.47;7.00;;;2.10;99.90;;;;;;4152212;28;20353;-45
2020/12/26 08:05:19;;;;;;;11.70;7.03;;;2.20;99.90;;;;;;4139297;28;20334;-48
2020/12/26 08:07:21;;;;;;;12.90;7.70;;;2.10;99.90;;;;;;4135285;28;20260;-50
2020/12/26 08:09:22;;;;;;;12.87;7.00;;;2.10;99.90;;;;;;4123390;28;20267;-53
2020/12/26 08:11:23;;;;;;;15.27;6.57;;;2.20;99.90;;;;;;4146457;28;20364;-51
2020/12/26 08:13:24;;;;;;;11.53;7.57;;;2.10;99.90;;;;;;4155745;28;20722;-52
2020/12/26 08:15:30;;;;;;;12.53;7.80;;;2.20;99.90;;;;;;4155739;28;20356;-57
2020/12/26 08:17:31;;;;;;;12.07;6.87;;;2.20;99.90;;;;;;4156575;28;20333;-48
2020/12/26 08:19:34;;;;;;;11.73;7.00;;;2.20;99.90;;;;;;4142729;28;20276;-51
2020/12/26 08:21:35;;;;;;;15.13;7.57;;;2.20;99.90;;;;;;4140642;28;20354;-47
2020/12/26 08:23:37;;;;;;;14.43;8.57;;;2.20;99.90;;;;;;4139545;28;20276;-48
2020/12/26 08:25:38;;;;;;;15.03;8.13;;;2.30;99.90;;;;;;4140296;28;20322;-55
2020/12/26 08:27:40;;;;;;;19.33;10.17;;;2.30;99.90;;;;;;4138925;28;20272;-50
2020/12/26 08:29:41;;;;;;;13.20;7.53;;;2.40;99.90;;;;;;4139790;28;20276;-56
2020/12/26 08:31:45;;;;;;;11.17;7.60;;;2.40;99.90;;;;;;4139854;28;20263;-49
2020/12/26 08:34:01;;;;;;;15.10;8.23;;;2.50;99.90;;;;;;4141206;28;20310;-51
2020/12/26 08:36:20;;;;;;;14.17;9.40;;;2.50;99.90;;;;;;4139660;28;20287;-53
2020/12/26 08:38:30;;;;;;;16.37;9.70;;;2.60;99.90;;;;;;4143549;28;20267;-45
2020/12/26 08:40:36;;;;;;;19.25;7.50;;;2.70;99.90;;;;;;4142156;28;20276;-43
2020/12/26 08:42:37;;;;;;;15.03;7.70;;;2.70;99.90;;;;;;4143537;28;20033;-44
2020/12/26 08:44:38;;;;;;;12.47;7.13;;;2.70;99.90;;;;;;4142766;28;20326;-45
2020/12/26 08:46:44;;;;;;;12.87;7.40;;;2.60;99.90;;;;;;4143289;28;20275;-48
2020/12/26 08:48:46;;;;;;;15.40;7.63;;;2.60;99.90;;;;;;4142421;28;20309;-47
2020/12/26 08:50:57;;;;;;;20.10;8.93;;;2.70;99.90;;;;;;4125686;28;20683;-52
2020/12/26 08:53:07;;;;;;;16.30;10.40;;;2.70;99.90;;;;;;4141630;28;20676;-53
2020/12/26 08:55:09;;;;;;;10.47;6.40;;;2.80;99.90;;;;;;4143717;28;20287;-42
2020/12/26 08:57:19;;;;;;;13.17;8.10;;;2.70;99.90;;;;;;4141910;28;20267;-52
2020/12/26 08:59:27;;;;;;;10.93;6.32;;;2.70;99.90;;;;;;4143893;28;20353;-55
2020/12/26 09:01:28;;;;;;;10.47;6.03;;;2.70;99.90;;;;;;4142444;28;20054;-48
2020/12/26 09:03:32;;;;;;;9.03;5.80;;;2.80;99.90;;;;;;4143536;28;20337;-48
2020/12/26 09:05:33;;;;;;;11.63;6.23;;;2.70;99.90;;;;;;4141545;28;20279;-47
2020/12/26 09:07:34;;;;;;;13.00;6.43;;;2.80;99.90;;;;;;4143118;28;20775;-60
2020/12/26 09:09:35;;;;;;;14.73;6.13;;;2.80;99.90;;;;;;4125881;28;20311;-41
2020/12/26 09:11:36;;;;;;;11.40;6.30;;;2.80;99.90;;;;;;4142069;28;20825;-47
2020/12/26 09:13:38;;;;;;;11.40;6.27;;;2.80;99.90;;;;;;4143047;28;20283;-45
2020/12/26 09:16:02;;;;;;;11.27;6.47;;;2.90;99.90;;;;;;4144880;28;20643;-43
2020/12/26 09:18:20;;;;;;;10.57;5.37;;;2.90;99.90;;;;;;4126545;28;20272;-44
2020/12/26 09:20:21;;;;;;;11.40;5.90;;;2.90;99.90;;;;;;4126711;28;20780;-46
2020/12/26 09:22:22;;;;;;;10.93;6.50;;;2.90;99.90;;;;;;4126038;28;20268;-44
2020/12/26 09:24:23;;;;;;;9.97;5.90;;;3.00;99.90;;;;;;4126116;28;20268;-42
2020/12/26 09:26:34;;;;;;;10.40;6.50;;;3.00;99.90;;;;;;4126857;28;20335;-46
2020/12/26 09:28:49;;;;;;;10.85;6.18;;;3.10;99.90;;;;;;4108485;28;20385;-44
2020/12/26 09:30:50;;;;;;;9.87;5.80;;;3.20;99.90;;;;;;4126316;28;20431;-49
2020/12/26 09:32:55;;;;;;;10.00;5.40;;;3.20;99.90;;;;;;4125601;28;20284;-40
2020/12/26 09:34:56;;;;;;;14.07;6.73;;;3.20;99.90;;;;;;4126636;28;20280;-42
2020/12/26 09:37:07;;;;;;;12.13;6.43;;;3.30;99.90;;;;;;4125722;28;20311;-41
2020/12/26 09:39:08;;;;;;;10.27;6.82;;;3.40;99.90;;;;;;4127155;28;20276;-44
2020/12/26 09:41:14;;;;;;;10.73;5.67;;;3.40;99.90;;;;;;4125071;28;20046;-49
2020/12/26 09:43:15;;;;;;;13.27;6.43;;;3.40;99.90;;;;;;4126650;28;20275;-50
2020/12/26 09:45:18;;;;;;;9.97;6.20;;;3.40;99.90;;;;;;4125728;28;20330;-46
2020/12/26 09:47:19;;;;;;;9.53;5.07;;;3.50;99.90;;;;;;4126292;28;20310;-45
2020/12/26 09:49:20;;;;;;;10.80;5.70;;;3.50;99.90;;;;;;4125266;28;20260;-45
2020/12/26 09:51:22;;;;;;;9.27;5.20;;;3.50;99.90;;;;;;4149340;28;20651;-49
2020/12/26 09:53:23;;;;;;;8.33;5.13;;;3.40;99.90;;;;;;4157112;28;20275;-51
2020/12/26 09:55:24;;;;;;;8.53;5.00;;;3.40;99.90;;;;;;4158910;28;20352;-42
2020/12/26 09:57:25;;;;;;;9.63;5.30;;;3.40;99.90;;;;;;4157909;28;20259;-44
2020/12/26 09:59:26;;;;;;;10.83;5.20;;;3.40;99.90;;;;;;4144935;28;20284;-46
2020/12/26 10:01:27;;;;;;;11.40;5.40;;;3.40;99.90;;;;;;4141647;28;20325;-44
2020/12/26 10:03:28;;;;;;;8.13;4.43;;;3.40;99.90;;;;;;4141815;28;20283;-49
2020/12/26 10:05:29;;;;;;;10.70;5.33;;;3.50;99.90;;;;;;4142079;28;20314;-43
2020/12/26 10:07:31;;;;;;;8.83;5.33;;;3.50;99.90;;;;;;4140550;28;20263;-41
2020/12/26 10:09:33;;;;;;;11.87;6.50;;;3.40;99.90;;;;;;4142275;28;20263;-46
2020/12/26 10:11:34;;;;;;;8.30;5.00;;;3.50;99.90;;;;;;4140749;28;20291;-45
2020/12/26 10:13:35;;;;;;;7.77;4.30;;;3.40;99.90;;;;;;4142127;28;20342;-46
2020/12/26 10:15:36;;;;;;;9.60;4.90;;;3.40;99.90;;;;;;4140567;28;20365;-45
2020/12/26 10:17:37;;;;;;;10.57;5.47;;;3.40;99.90;;;;;;4141963;28;20280;-45
2020/12/26 10:19:38;;;;;;;8.00;4.47;;;3.40;99.90;;;;;;4141419;28;20255;-57
2020/12/26 10:21:39;;;;;;;7.90;4.53;;;3.40;99.90;;;;;;4142322;28;20748;-50
2020/12/26 10:23:40;;;;;;;10.33;5.30;;;3.40;99.90;;;;;;4140863;28;20271;-46
2020/12/26 10:25:41;;;;;;;8.77;4.90;;;3.30;99.90;;;;;;4141705;28;20317;-45
2020/12/26 10:27:43;;;;;;;7.47;4.80;;;3.30;99.90;;;;;;4140775;28;20263;-43
2020/12/26 10:29:44;;;;;;;12.80;6.53;;;3.30;99.90;;;;;;4141581;28;20334;-56
2020/12/26 10:31:45;;;;;;;11.20;4.90;;;3.20;99.90;;;;;;4141184;28;20821;-49
2020/12/26 10:33:46;;;;;;;7.53;4.40;;;3.20;99.90;;;;;;4139665;28;20391;-38
2020/12/26 10:35:47;;;;;;;10.40;4.37;;;3.30;99.90;;;;;;4141329;28;20337;-39
2020/12/26 10:37:48;;;;;;;10.13;5.60;;;3.30;99.90;;;;;;4140642;28;20263;-45
2020/12/26 10:39:49;;;;;;;14.43;6.27;;;3.30;99.90;;;;;;4140590;28;20676;-43
2020/12/26 10:41:51;;;;;;;34.93;14.47;;;3.30;99.90;;;;;;4140878;28;20663;-54